This is the latest recevied weather packets stored in our database for station/object K7DC. If no packets are shown the sender has not sent any weather packets the latest 10 day(s).
| Time | Temp. | Humidity | Pressure | Rain* | Wind** | Luminosity | Snow |
|---|---|---|---|---|---|---|---|
| 1777996735 | 17.78° C | 75% | 1013.2 hPa | 0 mm | - | 312 W/m² | - |
| 1777996431 | 17.22° C | 77% | 1012.9 hPa | 0 mm | - | 236 W/m² | - |
| 1777996128 | 17.22° C | 77% | 1013 hPa | 0 mm | - | 150 W/m² | - |
| 1777995824 | 17.22° C | 80% | 1013.2 hPa | 0 mm | - | 124 W/m² | - |
| 1777995520 | 16.67° C | 81% | 1013.1 hPa | 0 mm | - | 121 W/m² | - |
| 1777995217 | 16.67° C | 80% | 1013 hPa | 0 mm | - | 100 W/m² | - |
| 1777994915 | 16.67° C | 79% | 1013.1 hPa | 0 mm | - | 100 W/m² | - |
| 1777994612 | 16.67° C | 80% | 1013 hPa | 0 mm | - | 88 W/m² | - |
| 1777994311 | 17.22° C | 78% | 1013.1 hPa | 0 mm | - | 119 W/m² | - |
| 1777994008 | 17.22° C | 77% | 1013.2 hPa | 0 mm | - | 118 W/m² | - |
| 1777993706 | 16.67° C | 77% | 1013 hPa | 0 mm | - | 144 W/m² | - |
| 1777993403 | 16.67° C | 79% | 1013 hPa | 0 mm | - | 203 W/m² | - |
| 1777993103 | 16.11° C | 79% | 1012.9 hPa | 0 mm | - | 181 W/m² | - |
| 1777992802 | 16.11° C | 82% | 1013 hPa | 0 mm | - | 151 W/m² | - |
| 1777992499 | 15.56° C | 82% | 1013 hPa | 0 mm | - | 148 W/m² | - |
| 1777991894 | 15.56° C | 84% | 1013 hPa | 0 mm | - | 65 W/m² | - |
| 1777991288 | 15.56° C | 81% | 1012.7 hPa | 0 mm | - | 70 W/m² | - |
| 1777990986 | 15.56° C | 81% | 1012.7 hPa | 0 mm | - | 63 W/m² | - |
| 1777990683 | 15.56° C | 80% | 1012.8 hPa | 0 mm | - | 65 W/m² | - |
| 1777990380 | 15.56° C | 84% | 1012.8 hPa | 0 mm | - | 82 W/m² | - |
| 1777990076 | 15.56° C | 83% | 1012.9 hPa | 0 mm | - | 78 W/m² | - |
| 1777989773 | 15.56° C | 85% | 1012.7 hPa | 0 mm | - | 72 W/m² | - |
| 1777989166 | 15° C | 81% | 1012.6 hPa | 0 mm | - | 68 W/m² | - |
| 1777988256 | 14.44° C | 86% | 1012.4 hPa | 0 mm | - | 63 W/m² | - |
| 1777987952 | 13.89° C | 88% | 1012 hPa | 0 mm | - | 56 W/m² | - |
* Rain latest hour (hover to see other rain measurements)
** Current wind speed in m/s (hover to see current wind gust speed)